Terminal Aerodrome Forecast
Issued by NWS

Home | Current Version | Previous Version | Text Only | Print | Product List | Glossary On
Versions: 1 2 3 4 5 6 7 8 9 10 11 12 13 14 15 16 17 18 19 20 21 22 23 24 25 26 27 28
923
FTUS45 KBOI 101735
TAFBKE
TAF
KBKE 101735Z 1018/1118 10010KT P6SM SCT200
     FM110300 VRB06KT P6SM OVC080
      TEMPO 1110/1112 3SM -SHSN OVC025
     FM111200 VRB03KT 1SM BR OVC002=

USA.gov is the U.S. government's official web portal to all federal, state and local government web resources and services.